createdAt,value
2023-04-02T00:00:46.445Z,25.00
2023-04-02T00:01:46.537Z,25.00
2023-04-02T00:02:46.590Z,0.00
2023-04-02T00:03:46.768Z,0.00
2023-04-02T00:04:46.652Z,0.00
2023-04-02T00:05:46.690Z,0.00
2023-04-02T00:06:46.727Z,0.00
2023-04-02T00:07:46.736Z,0.00
2023-04-02T00:08:46.748Z,0.00
2023-04-02T00:09:46.757Z,0.00
2023-04-02T00:10:46.763Z,13.95
2023-04-02T00:11:46.812Z,25.00
2023-04-02T00:12:46.799Z,23.69
2023-04-02T00:13:46.811Z,26.20
2023-04-02T00:14:46.797Z,25.00
2023-04-02T00:15:46.824Z,25.00
2023-04-02T00:16:47.008Z,24.17
2023-04-02T00:17:46.854Z,25.35
2023-04-02T00:18:46.844Z,25.22
2023-04-02T00:19:46.861Z,25.00
2023-04-02T00:20:46.859Z,27.47
2023-04-02T00:21:46.858Z,25.00
2023-04-02T00:22:46.862Z,25.23
2023-04-02T00:23:46.891Z,27.05
2023-04-02T00:24:46.885Z,27.74
2023-04-02T00:25:46.907Z,29.61
2023-04-02T00:26:46.909Z,25.61
2023-04-02T00:27:46.974Z,27.42
2023-04-02T00:28:46.942Z,27.86
2023-04-02T00:29:46.953Z,25.00
2023-04-02T00:30:46.981Z,27.23
2023-04-02T00:31:47.073Z,27.35
2023-04-02T00:32:47.057Z,26.41
2023-04-02T00:33:47.031Z,26.77
2023-04-02T00:34:47.035Z,29.83
2023-04-02T00:35:47.121Z,27.32
2023-04-02T00:36:47.069Z,25.69
2023-04-02T00:37:47.097Z,26.48
2023-04-02T00:38:48.706Z,28.09
2023-04-02T00:39:47.117Z,27.17
2023-04-02T00:40:47.097Z,30.59
2023-04-02T00:41:47.158Z,25.83
2023-04-02T00:42:47.097Z,25.67
2023-04-02T00:43:47.109Z,26.69
2023-04-02T00:44:47.071Z,27.45
2023-04-02T00:45:47.096Z,28.00
2023-04-02T00:46:47.466Z,26.60
2023-04-02T00:47:47.068Z,25.00
2023-04-02T00:48:47.052Z,29.90
2023-04-02T00:49:47.041Z,27.68
2023-04-02T00:50:47.036Z,25.00
2023-04-02T00:51:47.030Z,25.00
2023-04-02T00:52:47.021Z,29.28
2023-04-02T00:53:47.032Z,27.68
2023-04-02T00:54:46.999Z,31.25
2023-04-02T00:55:46.998Z,29.38
2023-04-02T00:56:47.036Z,29.79
2023-04-02T00:57:47.009Z,26.28
2023-04-02T00:58:46.978Z,26.92
2023-04-02T00:59:46.998Z,26.72
2023-04-02T01:00:46.957Z,29.26
2023-04-02T01:01:47.033Z,29.36
2023-04-02T01:02:47.027Z,27.03
2023-04-02T01:03:47.055Z,26.96
2023-04-02T01:04:46.940Z,25.73
2023-04-02T01:05:46.925Z,26.39
2023-04-02T01:06:46.916Z,31.39
2023-04-02T01:07:46.916Z,27.33
2023-04-02T01:08:46.907Z,29.65
2023-04-02T01:09:46.904Z,28.75
2023-04-02T01:10:46.891Z,28.91
2023-04-02T01:11:46.880Z,27.97
2023-04-02T01:12:46.864Z,27.56
2023-04-02T01:13:46.856Z,27.89
2023-04-02T01:14:46.848Z,28.79
2023-04-02T01:15:46.958Z,25.90
2023-04-02T01:16:46.839Z,27.49
2023-04-02T01:17:46.851Z,26.14
2023-04-02T01:18:46.831Z,29.87
2023-04-02T01:19:46.814Z,27.67
2023-04-02T01:20:46.806Z,27.42
2023-04-02T01:21:46.810Z,26.96
2023-04-02T01:22:46.793Z,25.00
2023-04-02T01:23:46.795Z,27.72
2023-04-02T01:24:46.776Z,25.00
2023-04-02T01:25:46.777Z,28.02
2023-04-02T01:26:46.771Z,30.52
2023-04-02T01:27:46.757Z,28.09
2023-04-02T01:28:46.745Z,25.21
2023-04-02T01:29:46.736Z,26.54
2023-04-02T01:30:46.734Z,27.92
2023-04-02T01:31:46.857Z,30.50
2023-04-02T01:32:46.751Z,29.40
2023-04-02T01:33:46.708Z,30.28
2023-04-02T01:34:46.717Z,28.84
2023-04-02T01:35:46.723Z,30.26
2023-04-02T01:36:46.735Z,28.02
2023-04-02T01:37:46.805Z,31.09
2023-04-02T01:38:46.758Z,29.83
2023-04-02T01:39:46.766Z,32.03
2023-04-02T01:40:46.783Z,31.65
2023-04-02T01:41:46.808Z,28.27
2023-04-02T01:42:46.812Z,28.20
2023-04-02T01:43:46.838Z,28.65
2023-04-02T01:44:46.864Z,31.01
2023-04-02T01:45:46.866Z,27.74
2023-04-02T01:46:46.885Z,30.82
2023-04-02T01:47:46.916Z,27.50
2023-04-02T01:48:46.886Z,26.00
2023-04-02T01:49:46.886Z,25.55
2023-04-02T01:50:46.922Z,29.22
2023-04-02T01:51:46.925Z,29.41
2023-04-02T01:52:46.954Z,30.69
2023-04-02T01:53:46.952Z,27.62
2023-04-02T01:54:46.962Z,30.09
2023-04-02T01:55:46.974Z,30.75
2023-04-02T01:56:47.171Z,28.30
2023-04-02T01:57:46.987Z,29.10
2023-04-02T01:58:46.988Z,26.77
2023-04-02T01:59:47.012Z,28.24
2023-04-02T02:00:47.048Z,27.67
2023-04-02T02:01:47.140Z,29.29
2023-04-02T02:02:47.101Z,26.37
2023-04-02T02:03:47.085Z,27.63
2023-04-02T02:04:47.059Z,31.50
2023-04-02T02:05:47.067Z,28.27
2023-04-02T02:06:47.100Z,28.55
2023-04-02T02:07:47.089Z,27.53
2023-04-02T02:08:47.101Z,26.70
2023-04-02T02:09:47.117Z,27.51
2023-04-02T02:10:47.120Z,27.95
2023-04-02T02:11:47.129Z,27.99
2023-04-02T02:12:47.127Z,27.77
2023-04-02T02:13:47.136Z,32.48
2023-04-02T02:14:47.133Z,28.06
2023-04-02T02:15:47.122Z,28.77
2023-04-02T02:16:47.176Z,26.93
2023-04-02T02:17:47.155Z,29.27
2023-04-02T02:18:47.130Z,27.86
2023-04-02T02:19:47.167Z,28.61
2023-04-02T02:20:47.147Z,28.81
2023-04-02T02:21:47.140Z,28.02
2023-04-02T02:22:47.156Z,29.73
2023-04-02T02:23:47.166Z,27.72
2023-04-02T02:24:47.197Z,27.59
2023-04-02T02:25:47.200Z,27.43
2023-04-02T02:26:47.171Z,28.12
2023-04-02T02:27:47.229Z,29.52
2023-04-02T02:28:47.184Z,28.79
2023-04-02T02:29:47.198Z,30.47
2023-04-02T02:30:47.215Z,29.13
2023-04-02T02:31:47.247Z,27.72
2023-04-02T02:32:47.290Z,27.96
2023-04-02T02:33:47.266Z,27.41
2023-04-02T02:34:47.278Z,27.03
2023-04-02T02:35:47.337Z,28.12
2023-04-02T02:36:47.316Z,27.86
2023-04-02T02:37:47.368Z,31.28
2023-04-02T02:38:47.401Z,29.26
2023-04-02T02:39:47.402Z,29.01
2023-04-02T02:40:47.422Z,29.02
2023-04-02T02:41:47.448Z,27.57
2023-04-02T02:42:47.449Z,30.75
2023-04-02T02:43:47.460Z,30.08
2023-04-02T02:44:47.478Z,31.40
2023-04-02T02:45:47.522Z,32.80
2023-04-02T02:46:47.551Z,27.90
2023-04-02T02:47:47.642Z,29.55
2023-04-02T02:48:47.539Z,30.35
2023-04-02T02:49:47.539Z,27.81
2023-04-02T02:50:47.542Z,30.57
2023-04-02T02:51:47.577Z,28.09
2023-04-02T02:52:47.592Z,29.22
2023-04-02T02:53:47.570Z,32.36
2023-04-02T02:54:47.567Z,31.91
2023-04-02T02:55:47.570Z,28.52
2023-04-02T02:56:47.627Z,31.97
2023-04-02T02:57:47.596Z,30.08
2023-04-02T02:58:47.591Z,29.65
2023-04-02T02:59:47.599Z,29.19
2023-04-02T03:00:47.585Z,32.91
2023-04-02T03:01:47.641Z,31.46
2023-04-02T03:02:47.766Z,30.22
2023-04-02T03:03:47.818Z,29.97
2023-04-02T03:04:47.593Z,31.44
2023-04-02T03:05:47.630Z,31.86
2023-04-02T03:06:47.627Z,26.46
2023-04-02T03:07:47.660Z,32.21
2023-04-02T03:08:47.632Z,31.15
2023-04-02T03:09:47.649Z,32.14
2023-04-02T03:10:47.700Z,30.98
2023-04-02T03:11:47.681Z,31.29
2023-04-02T03:12:47.680Z,30.55
2023-04-02T03:13:47.733Z,30.67
2023-04-02T03:14:47.716Z,29.93
2023-04-02T03:15:47.761Z,30.00
2023-04-02T03:16:47.732Z,29.48
2023-04-02T03:17:47.773Z,30.59
2023-04-02T03:18:47.761Z,28.19
2023-04-02T03:19:47.762Z,29.54
2023-04-02T03:20:47.840Z,29.52
2023-04-02T03:21:47.809Z,30.07
2023-04-02T03:22:47.820Z,33.84
2023-04-02T03:23:47.877Z,32.36
2023-04-02T03:24:47.851Z,31.20
2023-04-02T03:25:47.891Z,27.60
2023-04-02T03:26:47.869Z,28.11
2023-04-02T03:27:47.893Z,30.67
2023-04-02T03:28:47.861Z,32.09
2023-04-02T03:29:47.865Z,28.97
2023-04-02T03:30:47.875Z,28.01
2023-04-02T03:31:47.885Z,28.84
2023-04-02T03:32:48.643Z,26.46
2023-04-02T03:33:47.882Z,28.29
2023-04-02T03:34:47.904Z,28.37
2023-04-02T03:35:47.963Z,33.62
2023-04-02T03:36:47.922Z,27.52
2023-04-02T03:37:47.946Z,32.01
2023-04-02T03:38:47.947Z,26.03
2023-04-02T03:39:48.012Z,31.64
2023-04-02T03:40:48.058Z,29.83
2023-04-02T03:41:47.986Z,28.37
2023-04-02T03:42:47.994Z,31.72
2023-04-02T03:43:48.036Z,27.85
2023-04-02T03:44:48.009Z,28.84
2023-04-02T03:45:48.020Z,29.86
2023-04-02T03:46:48.149Z,28.02
2023-04-02T03:47:48.090Z,29.91
2023-04-02T03:48:48.068Z,31.57
2023-04-02T03:49:48.080Z,27.60
2023-04-02T03:50:48.104Z,32.19
2023-04-02T03:51:48.136Z,28.60
2023-04-02T03:52:48.103Z,27.60
2023-04-02T03:53:48.143Z,27.96
2023-04-02T03:54:54.149Z,28.09
2023-04-02T03:55:48.197Z,28.52
2023-04-02T03:56:48.148Z,29.80
2023-04-02T03:57:48.107Z,29.85
2023-04-02T03:58:48.088Z,28.36
2023-04-02T03:59:48.089Z,27.46
2023-04-02T04:00:48.084Z,26.75
2023-04-02T04:01:48.135Z,25.61
2023-04-02T04:02:48.109Z,27.17
2023-04-02T04:03:48.122Z,29.66
2023-04-02T04:04:48.069Z,29.56
2023-04-02T04:05:48.044Z,27.97
2023-04-02T04:06:48.040Z,28.41
2023-04-02T04:07:48.020Z,27.74
2023-04-02T04:08:48.017Z,27.54
2023-04-02T04:09:48.077Z,27.70
2023-04-02T04:10:48.019Z,29.03
2023-04-02T04:11:48.023Z,30.64
2023-04-02T04:12:47.994Z,27.49
2023-04-02T04:13:47.995Z,29.66
2023-04-02T04:14:47.976Z,26.75
2023-04-02T04:15:47.966Z,28.16
2023-04-02T04:16:47.984Z,30.67
2023-04-02T04:17:48.037Z,30.46
2023-04-02T04:18:47.950Z,29.93
2023-04-02T04:19:47.950Z,27.34
2023-04-02T04:20:47.943Z,30.75
2023-04-02T04:21:47.934Z,27.37
2023-04-02T04:22:47.919Z,29.03
2023-04-02T04:23:47.913Z,27.60
2023-04-02T04:24:47.930Z,30.06
2023-04-02T04:25:47.907Z,27.84
2023-04-02T04:26:47.895Z,28.84
2023-04-02T04:27:47.912Z,27.05
2023-04-02T04:28:47.894Z,28.80
2023-04-02T04:29:47.874Z,29.71
2023-04-02T04:30:47.868Z,29.79
2023-04-02T04:31:47.920Z,27.81
2023-04-02T04:32:47.914Z,26.28
2023-04-02T04:33:47.852Z,28.33
2023-04-02T04:34:47.849Z,29.69
2023-04-02T04:35:47.853Z,29.16
2023-04-02T04:36:47.849Z,29.52
2023-04-02T04:37:47.823Z,28.40
2023-04-02T04:38:47.875Z,30.26
2023-04-02T04:39:47.821Z,27.49
2023-04-02T04:40:47.809Z,25.66
2023-04-02T04:41:47.800Z,32.05
2023-04-02T04:42:47.788Z,30.78
2023-04-02T04:43:47.848Z,30.40
2023-04-02T04:44:47.792Z,29.80
2023-04-02T04:45:47.892Z,28.73
2023-04-02T04:46:47.758Z,32.85
2023-04-02T04:47:47.900Z,28.91
2023-04-02T04:48:47.752Z,30.75
2023-04-02T04:49:47.744Z,29.99
2023-04-02T04:50:47.742Z,28.47
2023-04-02T04:51:47.763Z,30.37
2023-04-02T04:52:47.716Z,31.72
2023-04-02T04:53:47.714Z,31.48
2023-04-02T04:54:47.703Z,30.08
2023-04-02T04:55:47.698Z,31.84
2023-04-02T04:56:47.750Z,31.62
2023-04-02T04:57:47.687Z,30.19
2023-04-02T04:58:47.675Z,25.52
2023-04-02T04:59:47.690Z,29.33
2023-04-02T05:00:49.063Z,28.13
2023-04-02T05:01:47.730Z,34.15
2023-04-02T05:02:47.681Z,32.88
2023-04-02T05:03:47.641Z,32.46
2023-04-02T05:04:47.654Z,30.68
2023-04-02T05:05:47.619Z,30.27
2023-04-02T05:06:47.644Z,27.56
2023-04-02T05:07:47.610Z,30.97
2023-04-02T05:08:47.597Z,30.46
2023-04-02T05:09:47.589Z,31.29
2023-04-02T05:10:47.591Z,31.89
2023-04-02T05:11:47.608Z,29.90
2023-04-02T05:12:47.573Z,28.96
2023-04-02T05:13:47.583Z,29.23
2023-04-02T05:14:47.589Z,30.16
2023-04-02T05:15:47.651Z,30.91
2023-04-02T05:16:47.543Z,28.23
2023-04-02T05:17:47.588Z,28.87
2023-04-02T05:18:47.552Z,32.12
2023-04-02T05:19:47.607Z,26.78
2023-04-02T05:20:47.522Z,32.71
2023-04-02T05:21:47.500Z,32.95
2023-04-02T05:22:47.505Z,28.55
2023-04-02T05:23:47.492Z,27.69
2023-04-02T05:24:47.480Z,30.56
2023-04-02T05:25:47.475Z,27.54
2023-04-02T05:26:47.472Z,33.44
2023-04-02T05:27:47.461Z,31.30
2023-04-02T05:28:47.456Z,27.13
2023-04-02T05:29:47.459Z,29.55
2023-04-02T05:30:47.443Z,31.01
2023-04-02T05:31:47.518Z,28.43
2023-04-02T05:32:47.471Z,29.70
2023-04-02T05:33:47.422Z,29.77
2023-04-02T05:34:47.448Z,27.57
2023-04-02T05:35:47.432Z,28.95
2023-04-02T05:36:47.391Z,30.10
2023-04-02T05:37:47.394Z,25.79
2023-04-02T05:38:47.380Z,27.85
2023-04-02T05:39:47.373Z,26.64
2023-04-02T05:40:47.367Z,28.96
2023-04-02T05:41:47.371Z,28.37
2023-04-02T05:42:47.361Z,29.61
2023-04-02T05:43:47.356Z,27.96
2023-04-02T05:44:47.337Z,29.57
2023-04-02T05:45:47.338Z,29.34
2023-04-02T05:46:47.386Z,27.95
2023-04-02T05:47:47.455Z,28.60
2023-04-02T05:48:47.343Z,28.82
2023-04-02T05:49:47.305Z,26.06
2023-04-02T05:50:47.302Z,31.40
2023-04-02T05:51:47.295Z,30.60
2023-04-02T05:52:47.293Z,27.30
2023-04-02T05:53:47.290Z,30.05
2023-04-02T05:54:47.280Z,28.67
2023-04-02T05:55:47.268Z,28.09
2023-04-02T05:56:47.309Z,29.12
2023-04-02T05:57:59.018Z,26.88
2023-04-02T05:58:47.259Z,27.39
2023-04-02T05:59:47.250Z,28.87
2023-04-02T06:00:47.239Z,28.37
2023-04-02T06:01:47.352Z,30.22
2023-04-02T06:02:47.274Z,32.18
2023-04-02T06:03:47.249Z,31.75
2023-04-02T06:04:47.225Z,29.13
2023-04-02T06:05:47.206Z,28.95
2023-04-02T06:06:47.188Z,29.43
2023-04-02T06:07:47.196Z,33.58
2023-04-02T06:08:47.188Z,29.14
2023-04-02T06:09:47.197Z,32.11
2023-04-02T06:10:47.168Z,28.76
2023-04-02T06:11:47.165Z,29.49
2023-04-02T06:12:47.154Z,29.67
2023-04-02T06:13:47.146Z,28.50
2023-04-02T06:14:47.135Z,30.91
2023-04-02T06:15:47.860Z,28.64
2023-04-02T06:16:47.200Z,30.95
2023-04-02T06:17:47.209Z,30.77
2023-04-02T06:18:47.138Z,28.93
2023-04-02T06:19:47.135Z,30.19
2023-04-02T06:20:47.107Z,29.41
2023-04-02T06:21:47.085Z,31.40
2023-04-02T06:22:47.098Z,29.14
2023-04-02T06:23:47.134Z,28.95
2023-04-02T06:24:47.070Z,28.14
2023-04-02T06:25:47.061Z,29.99
2023-04-02T06:26:47.078Z,26.87
2023-04-02T06:27:47.065Z,27.27
2023-04-02T06:28:47.048Z,29.59
2023-04-02T06:29:47.032Z,29.06
2023-04-02T06:30:47.085Z,30.39
2023-04-02T06:31:49.340Z,30.04
2023-04-02T06:32:47.163Z,35.54
2023-04-02T06:33:47.005Z,34.21
2023-04-02T06:34:47.008Z,28.75
2023-04-02T06:35:47.136Z,32.97
2023-04-02T06:36:46.979Z,33.13
2023-04-02T06:37:46.977Z,29.83
2023-04-02T06:38:46.979Z,30.96
2023-04-02T06:39:46.963Z,31.48
2023-04-02T06:40:46.956Z,29.59
2023-04-02T06:41:46.956Z,27.81
2023-04-02T06:42:46.943Z,27.58
2023-04-02T06:43:47.022Z,29.39
2023-04-02T06:44:46.974Z,29.82
2023-04-02T06:45:46.986Z,26.44
2023-04-02T06:46:46.928Z,30.97
2023-04-02T06:47:46.966Z,29.83
2023-04-02T06:48:46.933Z,28.64
2023-04-02T06:49:46.900Z,30.50
2023-04-02T06:50:46.890Z,28.56
2023-04-02T06:51:46.914Z,30.20
2023-04-02T06:52:46.905Z,26.56
2023-04-02T06:53:46.870Z,27.49
2023-04-02T06:54:46.865Z,32.83
2023-04-02T06:55:46.861Z,26.56
2023-04-02T06:56:46.912Z,31.07
2023-04-02T06:57:46.894Z,28.30
2023-04-02T06:58:46.840Z,30.97
2023-04-02T06:59:46.835Z,30.87
2023-04-02T07:00:46.828Z,27.93
2023-04-02T07:01:46.882Z,28.83
2023-04-02T07:02:46.865Z,29.79
2023-04-02T07:03:46.854Z,29.43
2023-04-02T07:04:46.836Z,29.39
2023-04-02T07:05:46.816Z,31.82
2023-04-02T07:06:46.781Z,26.37
2023-04-02T07:07:46.807Z,29.31
2023-04-02T07:08:46.808Z,28.81
2023-04-02T07:09:46.770Z,27.75
2023-04-02T07:10:46.776Z,25.00
2023-04-02T07:11:46.813Z,29.78
2023-04-02T07:12:46.744Z,29.46
2023-04-02T07:13:46.748Z,25.09
2023-04-02T07:14:46.731Z,29.11
2023-04-02T07:15:46.821Z,29.86
2023-04-02T07:16:46.765Z,32.14
2023-04-02T07:17:46.785Z,27.94
2023-04-02T07:18:46.707Z,25.89
2023-04-02T07:19:46.702Z,27.43
2023-04-02T07:20:46.723Z,28.60
2023-04-02T07:21:46.689Z,29.62
2023-04-02T07:22:46.691Z,28.77
2023-04-02T07:23:46.725Z,33.98
2023-04-02T07:24:46.673Z,28.93
2023-04-02T07:25:46.658Z,31.15
2023-04-02T07:26:46.653Z,30.77
2023-04-02T07:27:46.660Z,31.08
2023-04-02T07:28:46.666Z,32.78
2023-04-02T07:29:46.632Z,28.48
2023-04-02T07:30:46.622Z,28.27
2023-04-02T07:31:46.699Z,29.57
2023-04-02T07:32:46.726Z,29.11
2023-04-02T07:33:46.631Z,31.67
2023-04-02T07:34:46.604Z,30.57
2023-04-02T07:35:46.635Z,30.37
2023-04-02T07:36:46.585Z,29.64
2023-04-02T07:37:46.593Z,28.48
2023-04-02T07:38:46.577Z,32.58
2023-04-02T07:39:46.592Z,29.13
2023-04-02T07:40:46.559Z,32.12
2023-04-02T07:41:46.569Z,28.64
2023-04-02T07:42:46.549Z,27.80
2023-04-02T07:43:46.536Z,30.99
2023-04-02T07:44:46.534Z,31.56
2023-04-02T07:45:46.534Z,30.12
2023-04-02T07:46:46.553Z,28.63
2023-04-02T07:47:46.521Z,30.41
2023-04-02T07:48:46.519Z,29.28
2023-04-02T07:49:46.493Z,31.60
2023-04-02T07:50:46.482Z,30.60
2023-04-02T07:51:46.511Z,27.45
2023-04-02T07:52:46.475Z,27.49
2023-04-02T07:53:46.494Z,28.67
2023-04-02T07:54:46.465Z,27.88
2023-04-02T07:55:46.487Z,26.52
2023-04-02T07:56:46.440Z,28.44
2023-04-02T07:57:46.902Z,30.56
2023-04-02T07:58:46.429Z,27.78
2023-04-02T07:59:46.426Z,28.40
2023-04-02T08:00:46.413Z,26.94
2023-04-02T08:01:46.414Z,31.89
2023-04-02T08:02:46.458Z,26.81
2023-04-02T08:03:46.636Z,28.74
2023-04-02T08:04:46.383Z,31.47
2023-04-02T08:05:46.374Z,29.88
2023-04-02T08:06:46.364Z,28.95
2023-04-02T08:07:46.366Z,31.59
2023-04-02T08:08:46.360Z,30.59
2023-04-02T08:09:46.354Z,30.67
2023-04-02T08:10:46.344Z,27.80
2023-04-02T08:11:46.392Z,29.85
2023-04-02T08:12:46.333Z,29.09
2023-04-02T08:13:46.349Z,26.16
2023-04-02T08:14:46.321Z,27.87
2023-04-02T08:15:46.315Z,25.00
2023-04-02T08:16:46.345Z,27.40
2023-04-02T08:17:46.402Z,29.34
2023-04-02T08:18:46.322Z,27.47
2023-04-02T08:19:54.042Z,27.03
2023-04-02T08:20:46.280Z,27.58
2023-04-02T08:21:46.275Z,28.61
2023-04-02T08:22:46.284Z,29.17
2023-04-02T08:23:46.320Z,29.65
2023-04-02T08:24:46.255Z,32.24
2023-04-02T08:25:46.242Z,26.86
2023-04-02T08:26:46.242Z,30.82
2023-04-02T08:27:46.254Z,31.29
2023-04-02T08:28:46.257Z,31.71
2023-04-02T08:29:46.219Z,29.20
2023-04-02T08:30:46.256Z,28.82
2023-04-02T08:31:46.211Z,27.58
2023-04-02T08:32:46.254Z,28.20
2023-04-02T08:33:46.233Z,28.52
2023-04-02T08:34:46.181Z,26.25
2023-04-02T08:35:46.221Z,29.89
2023-04-02T08:36:46.167Z,27.85
2023-04-02T08:37:46.186Z,28.74
2023-04-02T08:38:46.183Z,27.83
2023-04-02T08:39:46.157Z,27.25
2023-04-02T08:40:46.138Z,28.00
2023-04-02T08:41:46.145Z,31.31
2023-04-02T08:42:46.124Z,29.33
2023-04-02T08:43:46.194Z,29.92
2023-04-02T08:44:46.111Z,29.42
2023-04-02T08:45:46.157Z,30.07
2023-04-02T08:46:46.129Z,28.60
2023-04-02T08:47:46.141Z,28.01
2023-04-02T08:48:46.106Z,30.61
2023-04-02T08:49:46.075Z,26.28
2023-04-02T08:50:46.061Z,29.62
2023-04-02T08:51:46.059Z,33.41
2023-04-02T08:52:46.050Z,26.65
2023-04-02T08:53:46.076Z,27.69
2023-04-02T08:54:46.044Z,27.68
2023-04-02T08:55:46.025Z,30.73
2023-04-02T08:56:46.016Z,29.66
2023-04-02T08:57:46.094Z,29.36
2023-04-02T08:58:46.006Z,26.96
2023-04-02T08:59:46.421Z,26.82
2023-04-02T09:00:45.994Z,30.85
2023-04-02T09:01:46.012Z,28.78
2023-04-02T09:02:46.058Z,28.30
2023-04-02T09:03:45.996Z,31.62
2023-04-02T09:04:45.992Z,31.12
2023-04-02T09:05:45.966Z,29.04
2023-04-02T09:06:45.968Z,29.76
2023-04-02T09:07:45.944Z,27.53
2023-04-02T09:08:45.939Z,27.05
2023-04-02T09:09:45.931Z,28.04
2023-04-02T09:10:45.924Z,27.20
2023-04-02T09:11:45.916Z,27.44
2023-04-02T09:12:45.906Z,28.57
2023-04-02T09:13:45.900Z,32.30
2023-04-02T09:14:45.896Z,30.71
2023-04-02T09:15:45.917Z,34.79
2023-04-02T09:16:45.885Z,31.82
2023-04-02T09:17:53.564Z,29.87
2023-04-02T09:18:45.945Z,30.25
2023-04-02T09:19:45.855Z,31.47
2023-04-02T09:20:45.850Z,32.72
2023-04-02T09:21:45.843Z,32.39
2023-04-02T09:22:45.830Z,37.33
2023-04-02T09:23:45.833Z,33.67
2023-04-02T09:24:45.825Z,33.96
2023-04-02T09:25:51.057Z,34.29
2023-04-02T09:26:45.807Z,34.70
2023-04-02T09:27:45.801Z,35.40
2023-04-02T09:28:45.819Z,35.55
2023-04-02T09:29:45.792Z,34.68
2023-04-02T09:30:45.777Z,34.37
2023-04-02T09:31:45.841Z,35.43
2023-04-02T09:32:45.858Z,30.81
2023-04-02T09:33:45.808Z,33.39
2023-04-02T09:34:45.742Z,33.38
2023-04-02T09:35:45.757Z,32.38
2023-04-02T09:36:45.739Z,34.09
2023-04-02T09:37:45.733Z,33.98
2023-04-02T09:38:45.744Z,34.00
2023-04-02T09:39:45.719Z,33.16
2023-04-02T09:40:45.703Z,32.41
2023-04-02T09:41:48.162Z,35.90
2023-04-02T09:42:45.693Z,36.29
2023-04-02T09:43:45.734Z,37.01
2023-04-02T09:44:45.681Z,36.00
2023-04-02T09:45:45.674Z,38.38
2023-04-02T09:46:45.730Z,32.54
2023-04-02T09:47:45.701Z,35.38
2023-04-02T09:48:45.698Z,33.59
2023-04-02T09:49:45.639Z,33.69
2023-04-02T09:50:45.712Z,33.42
2023-04-02T09:51:45.634Z,33.74
2023-04-02T09:52:45.622Z,34.04
2023-04-02T09:53:45.644Z,31.08
2023-04-02T09:54:45.603Z,29.91
2023-04-02T09:55:45.590Z,32.50
2023-04-02T09:56:45.583Z,33.61
2023-04-02T09:57:45.578Z,33.16
2023-04-02T09:58:45.816Z,33.44
2023-04-02T09:59:45.589Z,34.19
2023-04-02T10:00:45.842Z,33.86
2023-04-02T10:01:45.552Z,32.59
2023-04-02T10:02:45.584Z,31.40
2023-04-02T10:03:45.572Z,28.77
2023-04-02T10:04:45.662Z,33.86
2023-04-02T10:05:45.751Z,30.65
2023-04-02T10:06:45.516Z,32.88
2023-04-02T10:07:45.514Z,31.89
2023-04-02T10:08:45.583Z,30.82
2023-04-02T10:09:45.489Z,34.37
2023-04-02T10:10:45.491Z,32.20
2023-04-02T10:11:46.901Z,30.06
2023-04-02T10:12:45.520Z,31.31
2023-04-02T10:13:45.564Z,31.37
2023-04-02T10:14:45.557Z,33.88
2023-04-02T10:15:45.603Z,34.35
2023-04-02T10:16:45.626Z,34.53
2023-04-02T10:17:45.639Z,33.52
2023-04-02T10:18:45.584Z,29.00
2023-04-02T10:19:45.703Z,34.32
2023-04-02T10:20:51.204Z,35.95
2023-04-02T10:21:45.620Z,36.17
2023-04-02T10:22:45.601Z,36.71
2023-04-02T10:23:45.599Z,36.34
2023-04-02T10:24:45.590Z,37.16
2023-04-02T10:25:45.576Z,34.80
2023-04-02T10:26:45.578Z,35.78
2023-04-02T10:27:45.565Z,34.61
2023-04-02T10:28:45.624Z,37.71
2023-04-02T10:29:45.608Z,35.09
2023-04-02T10:30:45.567Z,32.42
2023-04-02T10:31:45.540Z,38.49
2023-04-02T10:32:45.579Z,36.62
2023-04-02T10:33:45.578Z,34.42
2023-04-02T10:34:45.517Z,36.70
2023-04-02T10:35:45.589Z,34.94
2023-04-02T10:36:45.499Z,38.56
2023-04-02T10:37:45.488Z,39.74
2023-04-02T10:38:45.513Z,36.47
2023-04-02T10:39:45.498Z,37.15
2023-04-02T10:40:45.475Z,37.83
2023-04-02T10:41:45.501Z,38.36
2023-04-02T10:42:45.458Z,37.97
2023-04-02T10:43:45.514Z,37.92
2023-04-02T10:44:45.446Z,38.47
2023-04-02T10:45:45.462Z,34.75
2023-04-02T10:46:45.511Z,39.55
2023-04-02T10:47:45.446Z,41.35
2023-04-02T10:48:45.406Z,36.29
2023-04-02T10:49:45.445Z,39.92
2023-04-02T10:50:45.403Z,41.37
2023-04-02T10:51:45.409Z,40.84
2023-04-02T10:52:45.396Z,39.93
2023-04-02T10:53:45.370Z,42.33
2023-04-02T10:54:45.359Z,41.21
2023-04-02T10:55:45.357Z,40.36
2023-04-02T10:56:51.130Z,42.92
2023-04-02T10:57:45.341Z,43.30
2023-04-02T10:58:45.333Z,44.42
2023-04-02T10:59:45.322Z,44.60
2023-04-02T11:00:45.317Z,44.48
2023-04-02T11:01:45.332Z,47.75
2023-04-02T11:02:45.382Z,43.57
2023-04-02T11:03:45.352Z,45.59
2023-04-02T11:04:45.292Z,47.22
2023-04-02T11:05:45.283Z,45.23
2023-04-02T11:06:45.279Z,45.60
2023-04-02T11:07:45.297Z,49.72
2023-04-02T11:08:45.262Z,45.70
2023-04-02T11:09:45.269Z,44.96
2023-04-02T11:10:45.258Z,45.76
2023-04-02T11:11:45.244Z,46.65
2023-04-02T11:12:45.233Z,44.83
2023-04-02T11:13:45.231Z,47.19
2023-04-02T11:14:45.224Z,47.87
2023-04-02T11:15:45.226Z,47.70
2023-04-02T11:16:45.289Z,50.24
2023-04-02T11:17:45.229Z,50.69
2023-04-02T11:18:45.242Z,48.55
2023-04-02T11:19:45.252Z,49.38
2023-04-02T11:20:45.180Z,48.75
2023-04-02T11:21:57.736Z,48.81
2023-04-02T11:22:45.174Z,49.32
2023-04-02T11:23:45.236Z,50.17
2023-04-02T11:24:45.186Z,51.09
2023-04-02T11:25:45.152Z,52.28
2023-04-02T11:26:45.173Z,52.27
2023-04-02T11:27:45.141Z,52.05
2023-04-02T11:28:45.132Z,51.05
2023-04-02T11:29:45.130Z,51.22
2023-04-02T11:30:45.116Z,51.67
2023-04-02T11:31:45.184Z,53.38
2023-04-02T11:32:45.143Z,52.43
2023-04-02T11:33:47.302Z,53.94
2023-04-02T11:34:45.082Z,54.20
2023-04-02T11:35:45.100Z,54.77
2023-04-02T11:36:45.072Z,54.60
2023-04-02T11:37:45.220Z,54.91
2023-04-02T11:38:45.055Z,53.89
2023-04-02T11:39:45.066Z,55.48
2023-04-02T11:40:45.150Z,54.68
2023-04-02T11:41:45.032Z,53.93
2023-04-02T11:42:45.028Z,55.01
2023-04-02T11:43:45.012Z,55.12
2023-04-02T11:44:45.004Z,54.47
2023-04-02T11:45:52.929Z,54.27
2023-04-02T11:46:45.003Z,54.70
2023-04-02T11:47:45.056Z,55.61
2023-04-02T11:48:44.980Z,56.64
2023-04-02T11:49:44.987Z,56.12
2023-04-02T11:50:44.957Z,56.28
2023-04-02T11:51:44.954Z,55.85
2023-04-02T11:52:44.947Z,56.40
2023-04-02T11:53:44.937Z,55.44
2023-04-02T11:54:44.944Z,55.14
2023-04-02T11:55:44.957Z,56.12
2023-04-02T11:56:44.920Z,57.82
2023-04-02T11:57:44.907Z,53.48
2023-04-02T11:58:44.911Z,52.54
2023-04-02T11:59:44.890Z,57.13
2023-04-02T12:00:44.886Z,55.47
2023-04-02T12:01:44.955Z,55.64
2023-04-02T12:02:44.984Z,55.66
2023-04-02T12:03:44.870Z,54.97
2023-04-02T12:04:44.887Z,54.21
2023-04-02T12:05:44.907Z,52.70
2023-04-02T12:06:44.837Z,55.51
2023-04-02T12:07:44.844Z,55.31
2023-04-02T12:08:57.187Z,53.56
2023-04-02T12:09:44.826Z,54.08
2023-04-02T12:10:44.830Z,55.27
2023-04-02T12:11:44.842Z,56.27
2023-04-02T12:12:44.802Z,57.64
2023-04-02T12:13:44.806Z,57.70
2023-04-02T12:14:44.786Z,58.15
2023-04-02T12:15:44.772Z,55.32
2023-04-02T12:16:44.826Z,56.84
2023-04-02T12:17:44.815Z,55.75
2023-04-02T12:18:44.756Z,57.00
2023-04-02T12:19:44.742Z,55.47
2023-04-02T12:20:44.734Z,57.08
2023-04-02T12:21:44.727Z,54.20
2023-04-02T12:22:44.717Z,51.81
2023-04-02T12:23:44.720Z,56.76
2023-04-02T12:24:44.710Z,53.60
2023-04-02T12:25:44.701Z,53.13
2023-04-02T12:26:44.704Z,56.92
2023-04-02T12:27:44.703Z,56.38
2023-04-02T12:28:44.671Z,56.27
2023-04-02T12:29:44.669Z,51.40
2023-04-02T12:30:44.682Z,55.89
2023-04-02T12:31:44.650Z,58.05
2023-04-02T12:32:44.663Z,56.72
2023-04-02T12:33:44.641Z,56.67
2023-04-02T12:34:44.630Z,51.76
2023-04-02T12:35:44.658Z,56.21
2023-04-02T12:36:44.612Z,57.41
2023-04-02T12:37:44.614Z,56.00
2023-04-02T12:38:44.613Z,56.47
2023-04-02T12:39:44.590Z,56.33
2023-04-02T12:40:44.588Z,53.45
2023-04-02T12:41:44.575Z,56.82
2023-04-02T12:42:44.567Z,56.03
2023-04-02T12:43:44.647Z,55.42
2023-04-02T12:44:44.556Z,56.78
2023-04-02T12:45:44.558Z,57.43
2023-04-02T12:46:44.564Z,56.02
2023-04-02T12:47:44.565Z,54.74
2023-04-02T12:48:44.525Z,54.80
2023-04-02T12:49:44.520Z,52.85
2023-04-02T12:50:44.507Z,55.89
2023-04-02T12:51:44.505Z,57.10
2023-04-02T12:52:44.498Z,57.36